Hauptseite
METAR-TAF:

METAR-TAF

Flughäfen :

Rabat, Marokko

Flughafen Rabat-Salé

Breite: 34-03N, Länge: 006-46W, Höhe: 84 m

Beobachtung

Neuester Wetterbericht von vor 11 Minuten, um 12:00 UTC
Wind 9 kt aus Nord, variierte zwischen Nordwest und Nord/Nordost
Temperatur 25°C
Luftfeuchtigkeit 57%
Luftdruck 1019 hPa
Sichtweite: 6000 m

METAR: GMME 221200Z 35009KT 310V020 6000 NSC 25/16 Q1019 NOSIG

Zeit: 12:11 (12:11 UTC)

Prognose

Neuester Wetterbericht von vor 1 Stunde und 11 Minuten, um 11:00 UTC
Gültige Prognose vom 22 um 12 UTC bis 23 um 18 UTC
Wind 8 kt aus Nord/Nordwest
Sichtweite: 7000 m

TAF: GMME 221100Z 2212/2318 33008KT 7000 NSC

Wetterbeobachtungen und Prognosen von mehr als 4000 Flughäfen (METAR und TAF Bericht).

Die verfügbaren Stationen werden durch gelbe und rote Markierungen auf der Karte dargestellt.

Führen Sie die Maus auf sie, um den Namen der Station zu sehen.

Darauf klicken, um die Beobachtung von Wetterbeobachtungen und Prognosen zu sehen.

Um die Karte zu ändern : klicken Sie auf den grünen Tasten mit einem schwarzen Kreuz Zum Vergrößern, auf den grünen Button mit einem Gedankenstrich zu verkleinern, oder auf die grünen Pfeile für benachbarte Karten.


METAR-TAF: